Snyder, Colorado
Current Conditions -  °F | °C
As of 7:35 PM on Friday 31 Oct 2014 (Local Time) from KFMM Reporting Station
Clear Clear  
Wind Chill: 38°   Ceiling: Unl
Heat Index: 45°   Visibility: 10mi
Dew Point: 27°   Wind: 14mph
Humidity: 49%   Direction: 140°SE
Pressure: 30.15"   Gusts: NA
Location:  40.33°N, 103.6°W
Report Text: KFMM 010135Z AUTO 14012KT 10SM CLR 07/M03 A3015 RMK AO2 T00701030
Loading
Personal Weather Stations






























Interactive Weather Map
Tropical Storm Tracking
New forecast layout! Learn more

10-Day Weather Forecast

Advertisements
Track Severe Weather on mobile